sensor_id;sensor_type;location;lat;lon;timestamp;temperature;humidity
14604;DHT22;7388;51.078;13.740;2022-11-27T00:01:59;10.60;50.10
14604;DHT22;7388;51.078;13.740;2022-11-27T00:04:25;10.50;50.00
14604;DHT22;7388;51.078;13.740;2022-11-27T00:06:50;10.50;50.00
14604;DHT22;7388;51.078;13.740;2022-11-27T00:09:16;10.50;50.00
14604;DHT22;7388;51.078;13.740;2022-11-27T00:11:43;10.50;49.90
14604;DHT22;7388;51.078;13.740;2022-11-27T00:14:10;10.50;49.90
14604;DHT22;7388;51.078;13.740;2022-11-27T00:16:36;10.50;49.90
14604;DHT22;7388;51.078;13.740;2022-11-27T00:19:02;10.50;49.50
14604;DHT22;7388;51.078;13.740;2022-11-27T00:21:31;10.50;49.30
14604;DHT22;7388;51.078;13.740;2022-11-27T00:23:58;10.50;49.40
14604;DHT22;7388;51.078;13.740;2022-11-27T00:26:25;10.40;49.30
14604;DHT22;7388;51.078;13.740;2022-11-27T00:28:51;10.40;49.20
14604;DHT22;7388;51.078;13.740;2022-11-27T00:31:22;10.40;49.30
14604;DHT22;7388;51.078;13.740;2022-11-27T00:33:54;10.50;49.50
14604;DHT22;7388;51.078;13.740;2022-11-27T00:36:20;10.40;49.10
14604;DHT22;7388;51.078;13.740;2022-11-27T00:38:46;10.40;49.20
14604;DHT22;7388;51.078;13.740;2022-11-27T00:41:15;10.40;49.20
14604;DHT22;7388;51.078;13.740;2022-11-27T00:43:41;10.40;49.00
14604;DHT22;7388;51.078;13.740;2022-11-27T00:46:07;10.50;48.80
14604;DHT22;7388;51.078;13.740;2022-11-27T00:48:33;10.50;48.60
14604;DHT22;7388;51.078;13.740;2022-11-27T00:51:01;10.50;48.50
14604;DHT22;7388;51.078;13.740;2022-11-27T00:53:28;10.40;48.40
14604;DHT22;7388;51.078;13.740;2022-11-27T00:55:54;10.40;48.60
14604;DHT22;7388;51.078;13.740;2022-11-27T00:58:21;10.30;48.80
14604;DHT22;7388;51.078;13.740;2022-11-27T01:00:57;10.30;48.70
14604;DHT22;7388;51.078;13.740;2022-11-27T01:03:24;10.30;48.70
14604;DHT22;7388;51.078;13.740;2022-11-27T01:05:50;10.30;48.60
14604;DHT22;7388;51.078;13.740;2022-11-27T01:08:16;10.30;49.30
14604;DHT22;7388;51.078;13.740;2022-11-27T01:10:53;10.30;48.60
14604;DHT22;7388;51.078;13.740;2022-11-27T01:13:22;10.30;48.50
14604;DHT22;7388;51.078;13.740;2022-11-27T01:15:58;10.20;48.60
14604;DHT22;7388;51.078;13.740;2022-11-27T01:18:24;10.20;48.80
14604;DHT22;7388;51.078;13.740;2022-11-27T01:20:54;10.20;48.50
14604;DHT22;7388;51.078;13.740;2022-11-27T01:23:21;10.30;48.60
14604;DHT22;7388;51.078;13.740;2022-11-27T01:25:47;10.20;48.40
14604;DHT22;7388;51.078;13.740;2022-11-27T01:28:14;10.20;48.70
14604;DHT22;7388;51.078;13.740;2022-11-27T01:30:40;10.20;48.70
14604;DHT22;7388;51.078;13.740;2022-11-27T01:33:05;10.20;48.80
14604;DHT22;7388;51.078;13.740;2022-11-27T01:35:31;10.20;48.50
14604;DHT22;7388;51.078;13.740;2022-11-27T01:37:57;10.20;48.40
14604;DHT22;7388;51.078;13.740;2022-11-27T01:40:23;10.10;48.60
14604;DHT22;7388;51.078;13.740;2022-11-27T01:42:49;10.10;48.80
14604;DHT22;7388;51.078;13.740;2022-11-27T01:45:17;10.10;48.90
14604;DHT22;7388;51.078;13.740;2022-11-27T01:47:50;10.10;48.60
14604;DHT22;7388;51.078;13.740;2022-11-27T01:50:25;10.00;48.40
14604;DHT22;7388;51.078;13.740;2022-11-27T01:52:58;10.00;48.60
14604;DHT22;7388;51.078;13.740;2022-11-27T01:55:35;10.00;48.60
14604;DHT22;7388;51.078;13.740;2022-11-27T01:58:18;10.00;48.60
14604;DHT22;7388;51.078;13.740;2022-11-27T02:00:46;10.00;48.40
14604;DHT22;7388;51.078;13.740;2022-11-27T02:03:12;9.90;48.60
14604;DHT22;7388;51.078;13.740;2022-11-27T02:05:38;9.90;48.60
14604;DHT22;7388;51.078;13.740;2022-11-27T02:08:08;9.80;48.40
14604;DHT22;7388;51.078;13.740;2022-11-27T02:10:46;9.80;48.30
14604;DHT22;7388;51.078;13.740;2022-11-27T02:13:38;9.80;48.20
14604;DHT22;7388;51.078;13.740;2022-11-27T02:16:14;9.70;47.70
14604;DHT22;7388;51.078;13.740;2022-11-27T02:22:13;9.50;47.60
14604;DHT22;7388;51.078;13.740;2022-11-27T02:25:01;9.30;47.70
14604;DHT22;7388;51.078;13.740;2022-11-27T02:30:05;9.20;48.00
14604;DHT22;7388;51.078;13.740;2022-11-27T02:32:56;9.10;48.10
14604;DHT22;7388;51.078;13.740;2022-11-27T02:35:38;9.00;47.80
14604;DHT22;7388;51.078;13.740;2022-11-27T02:38:11;8.90;47.80
14604;DHT22;7388;51.078;13.740;2022-11-27T02:43:28;8.80;48.00
14604;DHT22;7388;51.078;13.740;2022-11-27T02:45:55;8.70;48.00
14604;DHT22;7388;51.078;13.740;2022-11-27T02:48:26;8.70;48.00
14604;DHT22;7388;51.078;13.740;2022-11-27T02:50:55;8.70;48.00
14604;DHT22;7388;51.078;13.740;2022-11-27T02:53:39;8.60;47.80
14604;DHT22;7388;51.078;13.740;2022-11-27T02:56:10;8.60;47.40
14604;DHT22;7388;51.078;13.740;2022-11-27T02:58:37;8.50;47.80
14604;DHT22;7388;51.078;13.740;2022-11-27T03:01:05;8.40;47.80
14604;DHT22;7388;51.078;13.740;2022-11-27T03:03:37;8.40;47.50
14604;DHT22;7388;51.078;13.740;2022-11-27T03:06:38;8.30;47.20
14604;DHT22;7388;51.078;13.740;2022-11-27T03:09:15;8.10;47.30
14604;DHT22;7388;51.078;13.740;2022-11-27T03:11:42;8.00;47.60
14604;DHT22;7388;51.078;13.740;2022-11-27T03:14:09;8.00;47.90
14604;DHT22;7388;51.078;13.740;2022-11-27T03:22:00;7.90;47.80
14604;DHT22;7388;51.078;13.740;2022-11-27T03:24:28;7.90;47.90
14604;DHT22;7388;51.078;13.740;2022-11-27T03:26:56;7.80;47.30
14604;DHT22;7388;51.078;13.740;2022-11-27T03:31:50;7.70;47.90
14604;DHT22;7388;51.078;13.740;2022-11-27T03:34:16;7.70;48.00
14604;DHT22;7388;51.078;13.740;2022-11-27T03:36:43;7.70;47.90
14604;DHT22;7388;51.078;13.740;2022-11-27T03:39:09;7.70;47.80
14604;DHT22;7388;51.078;13.740;2022-11-27T03:45:20;7.70;47.50
14604;DHT22;7388;51.078;13.740;2022-11-27T03:53:34;7.50;47.50
14604;DHT22;7388;51.078;13.740;2022-11-27T04:01:24;7.40;46.90
14604;DHT22;7388;51.078;13.740;2022-11-27T04:03:51;7.30;47.20
14604;DHT22;7388;51.078;13.740;2022-11-27T04:06:17;7.30;47.30
14604;DHT22;7388;51.078;13.740;2022-11-27T04:08:45;7.30;47.30
14604;DHT22;7388;51.078;13.740;2022-11-27T04:11:11;7.20;47.10
14604;DHT22;7388;51.078;13.740;2022-11-27T04:13:37;7.20;46.90
14604;DHT22;7388;51.078;13.740;2022-11-27T04:16:03;7.10;47.20
14604;DHT22;7388;51.078;13.740;2022-11-27T04:18:29;7.10;47.20
14604;DHT22;7388;51.078;13.740;2022-11-27T04:20:55;7.10;47.50
14604;DHT22;7388;51.078;13.740;2022-11-27T04:23:21;7.10;47.50
14604;DHT22;7388;51.078;13.740;2022-11-27T04:25:47;7.10;47.30
14604;DHT22;7388;51.078;13.740;2022-11-27T04:28:13;7.10;47.20
14604;DHT22;7388;51.078;13.740;2022-11-27T04:30:39;7.00;46.90
14604;DHT22;7388;51.078;13.740;2022-11-27T04:33:05;7.00;47.00
14604;DHT22;7388;51.078;13.740;2022-11-27T04:35:31;7.00;46.90
14604;DHT22;7388;51.078;13.740;2022-11-27T04:37:56;7.00;47.10
14604;DHT22;7388;51.078;13.740;2022-11-27T04:40:22;6.90;47.10
14604;DHT22;7388;51.078;13.740;2022-11-27T04:42:48;6.90;47.10
14604;DHT22;7388;51.078;13.740;2022-11-27T04:45:15;6.90;47.10
14604;DHT22;7388;51.078;13.740;2022-11-27T04:47:40;6.90;46.90
14604;DHT22;7388;51.078;13.740;2022-11-27T04:50:07;6.80;46.90
14604;DHT22;7388;51.078;13.740;2022-11-27T04:52:33;6.80;46.90
14604;DHT22;7388;51.078;13.740;2022-11-27T04:54:59;6.70;46.80
14604;DHT22;7388;51.078;13.740;2022-11-27T04:57:24;6.70;46.90
14604;DHT22;7388;51.078;13.740;2022-11-27T04:59:50;6.70;47.10
14604;DHT22;7388;51.078;13.740;2022-11-27T05:02:16;6.70;47.80
14604;DHT22;7388;51.078;13.740;2022-11-27T05:04:42;6.70;47.00
14604;DHT22;7388;51.078;13.740;2022-11-27T05:07:07;6.60;46.90
14604;DHT22;7388;51.078;13.740;2022-11-27T05:09:33;6.60;46.80
14604;DHT22;7388;51.078;13.740;2022-11-27T05:11:59;6.60;46.70
14604;DHT22;7388;51.078;13.740;2022-11-27T05:14:24;6.50;46.80
14604;DHT22;7388;51.078;13.740;2022-11-27T05:16:55;6.50;47.00
14604;DHT22;7388;51.078;13.740;2022-11-27T05:19:23;6.50;47.10
14604;DHT22;7388;51.078;13.740;2022-11-27T05:21:50;6.50;47.10
14604;DHT22;7388;51.078;13.740;2022-11-27T05:24:17;6.50;47.20
14604;DHT22;7388;51.078;13.740;2022-11-27T05:26:43;6.50;47.20
14604;DHT22;7388;51.078;13.740;2022-11-27T05:29:13;6.50;47.20
14604;DHT22;7388;51.078;13.740;2022-11-27T05:31:39;6.50;47.10
14604;DHT22;7388;51.078;13.740;2022-11-27T05:34:05;6.50;47.20
14604;DHT22;7388;51.078;13.740;2022-11-27T05:36:31;6.50;47.10
14604;DHT22;7388;51.078;13.740;2022-11-27T05:38:58;6.50;47.20
14604;DHT22;7388;51.078;13.740;2022-11-27T05:41:24;6.50;47.20
14604;DHT22;7388;51.078;13.740;2022-11-27T05:43:50;6.50;47.30
14604;DHT22;7388;51.078;13.740;2022-11-27T05:46:18;6.50;47.30
14604;DHT22;7388;51.078;13.740;2022-11-27T05:48:44;6.50;47.30
14604;DHT22;7388;51.078;13.740;2022-11-27T05:51:10;6.50;47.40
14604;DHT22;7388;51.078;13.740;2022-11-27T05:53:36;6.50;47.50
14604;DHT22;7388;51.078;13.740;2022-11-27T05:56:10;6.50;47.70
14604;DHT22;7388;51.078;13.740;2022-11-27T05:58:37;6.60;47.90
14604;DHT22;7388;51.078;13.740;2022-11-27T06:01:04;6.60;48.10
14604;DHT22;7388;51.078;13.740;2022-11-27T06:03:31;6.60;48.20
14604;DHT22;7388;51.078;13.740;2022-11-27T06:05:57;6.60;48.40
14604;DHT22;7388;51.078;13.740;2022-11-27T06:08:22;6.70;48.60
14604;DHT22;7388;51.078;13.740;2022-11-27T06:10:49;6.70;48.60
14604;DHT22;7388;51.078;13.740;2022-11-27T06:13:15;6.70;48.60
14604;DHT22;7388;51.078;13.740;2022-11-27T06:15:41;6.80;48.70
14604;DHT22;7388;51.078;13.740;2022-11-27T06:18:08;6.40;48.40
14604;DHT22;7388;51.078;13.740;2022-11-27T06:20:34;6.80;49.50
14604;DHT22;7388;51.078;13.740;2022-11-27T06:23:00;6.80;48.90
14604;DHT22;7388;51.078;13.740;2022-11-27T06:25:26;6.80;48.90
14604;DHT22;7388;51.078;13.740;2022-11-27T06:27:51;6.80;49.00
14604;DHT22;7388;51.078;13.740;2022-11-27T06:30:17;6.90;49.20
14604;DHT22;7388;51.078;13.740;2022-11-27T06:32:43;6.90;49.20
14604;DHT22;7388;51.078;13.740;2022-11-27T06:35:09;6.90;49.30
14604;DHT22;7388;51.078;13.740;2022-11-27T06:37:35;6.90;49.10
14604;DHT22;7388;51.078;13.740;2022-11-27T06:40:01;6.90;49.30
14604;DHT22;7388;51.078;13.740;2022-11-27T06:42:30;6.90;49.50
14604;DHT22;7388;51.078;13.740;2022-11-27T06:44:56;6.90;49.60
14604;DHT22;7388;51.078;13.740;2022-11-27T06:47:22;6.90;49.60
14604;DHT22;7388;51.078;13.740;2022-11-27T06:49:48;6.90;49.70
14604;DHT22;7388;51.078;13.740;2022-11-27T06:52:14;6.90;50.00
14604;DHT22;7388;51.078;13.740;2022-11-27T06:54:39;6.90;50.00
14604;DHT22;7388;51.078;13.740;2022-11-27T06:57:05;7.00;50.00
14604;DHT22;7388;51.078;13.740;2022-11-27T06:59:31;7.00;49.90
14604;DHT22;7388;51.078;13.740;2022-11-27T07:01:56;7.10;49.90
14604;DHT22;7388;51.078;13.740;2022-11-27T07:04:22;7.10;49.80
14604;DHT22;7388;51.078;13.740;2022-11-27T07:06:48;7.10;50.00
14604;DHT22;7388;51.078;13.740;2022-11-27T07:09:14;7.00;50.20
14604;DHT22;7388;51.078;13.740;2022-11-27T07:11:40;7.00;50.40
14604;DHT22;7388;51.078;13.740;2022-11-27T07:14:06;6.90;50.40
14604;DHT22;7388;51.078;13.740;2022-11-27T07:16:34;6.90;50.60
14604;DHT22;7388;51.078;13.740;2022-11-27T07:19:03;7.00;50.70
14604;DHT22;7388;51.078;13.740;2022-11-27T07:21:29;7.00;50.70
14604;DHT22;7388;51.078;13.740;2022-11-27T07:23:55;7.10;50.80
14604;DHT22;7388;51.078;13.740;2022-11-27T07:26:23;7.10;51.50
14604;DHT22;7388;51.078;13.740;2022-11-27T07:28:50;7.10;51.00
14604;DHT22;7388;51.078;13.740;2022-11-27T07:31:21;7.10;51.00
14604;DHT22;7388;51.078;13.740;2022-11-27T07:33:47;7.20;50.90
14604;DHT22;7388;51.078;13.740;2022-11-27T07:36:31;7.20;51.00
14604;DHT22;7388;51.078;13.740;2022-11-27T07:38:57;7.30;51.00
14604;DHT22;7388;51.078;13.740;2022-11-27T07:41:23;7.30;50.90
14604;DHT22;7388;51.078;13.740;2022-11-27T07:43:48;7.30;50.80
14604;DHT22;7388;51.078;13.740;2022-11-27T07:46:22;7.30;50.90
14604;DHT22;7388;51.078;13.740;2022-11-27T07:48:48;7.40;50.90
14604;DHT22;7388;51.078;13.740;2022-11-27T07:51:16;7.30;51.10
14604;DHT22;7388;51.078;13.740;2022-11-27T07:53:43;7.30;51.20
14604;DHT22;7388;51.078;13.740;2022-11-27T07:56:10;7.40;51.30
14604;DHT22;7388;51.078;13.740;2022-11-27T07:58:36;7.40;51.20
14604;DHT22;7388;51.078;13.740;2022-11-27T08:01:07;7.40;51.40
14604;DHT22;7388;51.078;13.740;2022-11-27T08:03:33;7.50;51.30
14604;DHT22;7388;51.078;13.740;2022-11-27T08:05:59;7.50;51.50
14604;DHT22;7388;51.078;13.740;2022-11-27T08:08:24;7.50;51.60
14604;DHT22;7388;51.078;13.740;2022-11-27T08:10:50;7.60;51.70
14604;DHT22;7388;51.078;13.740;2022-11-27T08:13:16;7.70;51.60
14604;DHT22;7388;51.078;13.740;2022-11-27T08:15:42;7.80;51.30
14604;DHT22;7388;51.078;13.740;2022-11-27T08:18:07;7.80;51.30
14604;DHT22;7388;51.078;13.740;2022-11-27T08:20:33;7.80;51.30
14604;DHT22;7388;51.078;13.740;2022-11-27T08:22:59;7.80;51.50
14604;DHT22;7388;51.078;13.740;2022-11-27T08:25:25;7.90;51.50
14604;DHT22;7388;51.078;13.740;2022-11-27T08:27:51;7.90;51.50
14604;DHT22;7388;51.078;13.740;2022-11-27T08:30:16;7.90;51.40
14604;DHT22;7388;51.078;13.740;2022-11-27T08:32:43;8.00;51.50
14604;DHT22;7388;51.078;13.740;2022-11-27T08:35:09;8.00;51.40
14604;DHT22;7388;51.078;13.740;2022-11-27T08:37:36;8.00;51.40
14604;DHT22;7388;51.078;13.740;2022-11-27T08:40:02;8.00;51.50
14604;DHT22;7388;51.078;13.740;2022-11-27T08:42:29;8.00;51.40
14604;DHT22;7388;51.078;13.740;2022-11-27T08:44:54;8.10;51.70
14604;DHT22;7388;51.078;13.740;2022-11-27T08:47:20;8.20;51.50
14604;DHT22;7388;51.078;13.740;2022-11-27T08:49:46;8.20;51.50
14604;DHT22;7388;51.078;13.740;2022-11-27T08:52:12;8.30;51.30
14604;DHT22;7388;51.078;13.740;2022-11-27T08:54:37;8.30;51.40
14604;DHT22;7388;51.078;13.740;2022-11-27T08:57:03;8.30;51.60
14604;DHT22;7388;51.078;13.740;2022-11-27T08:59:29;8.40;51.50
14604;DHT22;7388;51.078;13.740;2022-11-27T09:01:55;8.40;51.50
14604;DHT22;7388;51.078;13.740;2022-11-27T09:04:21;8.50;51.50
14604;DHT22;7388;51.078;13.740;2022-11-27T09:06:47;8.50;51.70
14604;DHT22;7388;51.078;13.740;2022-11-27T09:09:15;8.60;51.40
14604;DHT22;7388;51.078;13.740;2022-11-27T09:11:41;8.60;51.30
14604;DHT22;7388;51.078;13.740;2022-11-27T09:14:07;8.70;51.30
14604;DHT22;7388;51.078;13.740;2022-11-27T09:16:34;8.60;51.20
14604;DHT22;7388;51.078;13.740;2022-11-27T09:19:00;8.70;51.30
14604;DHT22;7388;51.078;13.740;2022-11-27T09:21:28;8.70;51.30
14604;DHT22;7388;51.078;13.740;2022-11-27T09:23:58;8.70;51.30
14604;DHT22;7388;51.078;13.740;2022-11-27T09:26:24;8.70;51.50
14604;DHT22;7388;51.078;13.740;2022-11-27T09:28:52;8.70;51.70
14604;DHT22;7388;51.078;13.740;2022-11-27T09:31:19;8.80;51.80
14604;DHT22;7388;51.078;13.740;2022-11-27T09:33:45;8.80;51.50
14604;DHT22;7388;51.078;13.740;2022-11-27T09:36:17;8.90;51.40
14604;DHT22;7388;51.078;13.740;2022-11-27T09:38:43;8.90;51.40
14604;DHT22;7388;51.078;13.740;2022-11-27T09:44:15;8.90;51.70
14604;DHT22;7388;51.078;13.740;2022-11-27T09:46:43;8.90;51.80
14604;DHT22;7388;51.078;13.740;2022-11-27T09:49:13;8.90;51.90
14604;DHT22;7388;51.078;13.740;2022-11-27T09:54:56;9.10;52.00
14604;DHT22;7388;51.078;13.740;2022-11-27T09:57:16;9.20;51.90
14604;DHT22;7388;51.078;13.740;2022-11-27T09:59:47;9.40;51.90
14604;DHT22;7388;51.078;13.740;2022-11-27T10:02:28;9.50;51.80
14604;DHT22;7388;51.078;13.740;2022-11-27T10:04:55;9.70;51.70
14604;DHT22;7388;51.078;13.740;2022-11-27T10:18:44;10.70;51.30
14604;DHT22;7388;51.078;13.740;2022-11-27T10:21:44;11.00;51.20
14604;DHT22;7388;51.078;13.740;2022-11-27T10:27:13;11.50;50.60
14604;DHT22;7388;51.078;13.740;2022-11-27T10:29:49;11.70;49.90
14604;DHT22;7388;51.078;13.740;2022-11-27T10:32:20;12.10;49.40
14604;DHT22;7388;51.078;13.740;2022-11-27T10:34:59;12.20;49.20
14604;DHT22;7388;51.078;13.740;2022-11-27T10:43:17;12.60;48.70
14604;DHT22;7388;51.078;13.740;2022-11-27T10:45:56;12.70;48.60
14604;DHT22;7388;51.078;13.740;2022-11-27T10:48:23;13.00;48.10
14604;DHT22;7388;51.078;13.740;2022-11-27T10:50:49;13.30;47.70
14604;DHT22;7388;51.078;13.740;2022-11-27T10:53:32;13.30;47.80
14604;DHT22;7388;51.078;13.740;2022-11-27T10:59:19;13.50;46.80
14604;DHT22;7388;51.078;13.740;2022-11-27T11:01:48;13.60;46.50
14604;DHT22;7388;51.078;13.740;2022-11-27T11:04:19;13.60;45.50
14604;DHT22;7388;51.078;13.740;2022-11-27T11:06:46;13.60;45.70
14604;DHT22;7388;51.078;13.740;2022-11-27T11:09:22;13.60;45.20
14604;DHT22;7388;51.078;13.740;2022-11-27T11:11:48;13.50;45.60
14604;DHT22;7388;51.078;13.740;2022-11-27T11:14:23;13.60;45.70
14604;DHT22;7388;51.078;13.740;2022-11-27T11:16:49;13.60;45.60
14604;DHT22;7388;51.078;13.740;2022-11-27T11:19:23;13.60;45.30
14604;DHT22;7388;51.078;13.740;2022-11-27T11:21:49;13.70;45.80
14604;DHT22;7388;51.078;13.740;2022-11-27T11:24:26;13.80;44.90
14604;DHT22;7388;51.078;13.740;2022-11-27T11:27:02;13.90;41.70
14604;DHT22;7388;51.078;13.740;2022-11-27T11:29:48;14.20;40.90
14604;DHT22;7388;51.078;13.740;2022-11-27T11:34:59;14.40;38.20
14604;DHT22;7388;51.078;13.740;2022-11-27T11:37:36;14.50;39.00
14604;DHT22;7388;51.078;13.740;2022-11-27T11:42:36;14.60;38.10
14604;DHT22;7388;51.078;13.740;2022-11-27T11:47:49;15.00;37.30
14604;DHT22;7388;51.078;13.740;2022-11-27T11:55:45;15.60;35.80
14604;DHT22;7388;51.078;13.740;2022-11-27T12:01:44;15.20;34.60
14604;DHT22;7388;51.078;13.740;2022-11-27T12:15:21;16.50;36.20
14604;DHT22;7388;51.078;13.740;2022-11-27T12:23:39;18.20;31.50
14604;DHT22;7388;51.078;13.740;2022-11-27T12:37:36;19.00;30.00
14604;DHT22;7388;51.078;13.740;2022-11-27T12:42:46;18.80;29.80
14604;DHT22;7388;51.078;13.740;2022-11-27T12:45:26;19.40;29.60
14604;DHT22;7388;51.078;13.740;2022-11-27T12:48:01;20.70;29.50
14604;DHT22;7388;51.078;13.740;2022-11-27T12:50:45;21.70;27.60
14604;DHT22;7388;51.078;13.740;2022-11-27T12:53:24;22.50;25.00
14604;DHT22;7388;51.078;13.740;2022-11-27T12:58:40;22.70;25.80
14604;DHT22;7388;51.078;13.740;2022-11-27T13:01:13;22.30;24.50
14604;DHT22;7388;51.078;13.740;2022-11-27T13:03:57;21.60;23.20
14604;DHT22;7388;51.078;13.740;2022-11-27T13:06:27;20.80;25.00
14604;DHT22;7388;51.078;13.740;2022-11-27T13:09:00;20.10;27.00
14604;DHT22;7388;51.078;13.740;2022-11-27T13:11:34;19.40;25.60
14604;DHT22;7388;51.078;13.740;2022-11-27T13:14:06;18.90;27.20
14604;DHT22;7388;51.078;13.740;2022-11-27T13:17:05;18.60;27.40
14604;DHT22;7388;51.078;13.740;2022-11-27T13:19:48;18.10;28.10
14604;DHT22;7388;51.078;13.740;2022-11-27T13:22:21;17.40;27.90
14604;DHT22;7388;51.078;13.740;2022-11-27T13:24:54;16.90;29.30
14604;DHT22;7388;51.078;13.740;2022-11-27T13:27:24;16.40;30.40
14604;DHT22;7388;51.078;13.740;2022-11-27T13:29:58;16.10;30.80
14604;DHT22;7388;51.078;13.740;2022-11-27T13:32:32;15.90;30.60
14604;DHT22;7388;51.078;13.740;2022-11-27T13:35:03;15.70;31.30
14604;DHT22;7388;51.078;13.740;2022-11-27T13:37:38;15.50;31.70
14604;DHT22;7388;51.078;13.740;2022-11-27T13:40:21;15.20;31.80
14604;DHT22;7388;51.078;13.740;2022-11-27T13:42:50;15.00;31.80
14604;DHT22;7388;51.078;13.740;2022-11-27T13:45:23;14.70;32.20
14604;DHT22;7388;51.078;13.740;2022-11-27T14:29:22;12.50;35.80
14604;DHT22;7388;51.078;13.740;2022-11-27T14:31:59;12.60;36.10
14604;DHT22;7388;51.078;13.740;2022-11-27T14:34:34;12.60;36.10
14604;DHT22;7388;51.078;13.740;2022-11-27T14:37:00;12.70;35.90
14604;DHT22;7388;51.078;13.740;2022-11-27T14:39:34;12.70;35.50
14604;DHT22;7388;51.078;13.740;2022-11-27T14:42:16;12.60;35.60
14604;DHT22;7388;51.078;13.740;2022-11-27T14:44:42;12.50;35.40
14604;DHT22;7388;51.078;13.740;2022-11-27T14:47:19;12.40;36.00
14604;DHT22;7388;51.078;13.740;2022-11-27T14:49:52;12.40;36.30
14604;DHT22;7388;51.078;13.740;2022-11-27T14:52:19;12.30;36.60
14604;DHT22;7388;51.078;13.740;2022-11-27T14:54:46;12.20;36.70
14604;DHT22;7388;51.078;13.740;2022-11-27T14:57:24;12.10;36.60
14604;DHT22;7388;51.078;13.740;2022-11-27T15:00:03;12.00;36.80
14604;DHT22;7388;51.078;13.740;2022-11-27T15:02:35;12.00;37.00
14604;DHT22;7388;51.078;13.740;2022-11-27T15:05:03;11.80;37.10
14604;DHT22;7388;51.078;13.740;2022-11-27T15:07:31;11.70;37.50
14604;DHT22;7388;51.078;13.740;2022-11-27T15:09:58;11.70;37.50
14604;DHT22;7388;51.078;13.740;2022-11-27T15:12:29;11.60;37.60
14604;DHT22;7388;51.078;13.740;2022-11-27T15:15:04;11.50;37.70
14604;DHT22;7388;51.078;13.740;2022-11-27T15:17:36;11.50;37.70
14604;DHT22;7388;51.078;13.740;2022-11-27T15:20:12;11.50;37.70
14604;DHT22;7388;51.078;13.740;2022-11-27T15:22:38;11.40;37.90
14604;DHT22;7388;51.078;13.740;2022-11-27T15:25:34;11.30;37.90
14604;DHT22;7388;51.078;13.740;2022-11-27T15:28:01;11.30;38.10
14604;DHT22;7388;51.078;13.740;2022-11-27T15:30:27;11.20;38.20
14604;DHT22;7388;51.078;13.740;2022-11-27T15:32:53;11.10;38.20
14604;DHT22;7388;51.078;13.740;2022-11-27T15:35:38;11.10;38.40
14604;DHT22;7388;51.078;13.740;2022-11-27T15:38:09;11.00;38.40
14604;DHT22;7388;51.078;13.740;2022-11-27T15:40:39;10.90;38.60
14604;DHT22;7388;51.078;13.740;2022-11-27T15:43:12;10.90;38.80
14604;DHT22;7388;51.078;13.740;2022-11-27T15:45:39;10.80;38.90
14604;DHT22;7388;51.078;13.740;2022-11-27T15:48:15;10.70;39.00
14604;DHT22;7388;51.078;13.740;2022-11-27T15:50:42;10.80;39.00
14604;DHT22;7388;51.078;13.740;2022-11-27T15:53:07;10.70;39.10
14604;DHT22;7388;51.078;13.740;2022-11-27T15:55:33;10.60;39.10
14604;DHT22;7388;51.078;13.740;2022-11-27T15:57:59;10.60;39.10
14604;DHT22;7388;51.078;13.740;2022-11-27T16:00:25;10.60;39.10
14604;DHT22;7388;51.078;13.740;2022-11-27T16:02:54;10.60;39.70
14604;DHT22;7388;51.078;13.740;2022-11-27T16:05:19;10.50;39.20
14604;DHT22;7388;51.078;13.740;2022-11-27T16:07:46;10.50;39.30
14604;DHT22;7388;51.078;13.740;2022-11-27T16:10:12;10.50;39.30
14604;DHT22;7388;51.078;13.740;2022-11-27T16:12:37;10.40;39.30
14604;DHT22;7388;51.078;13.740;2022-11-27T16:15:05;10.40;39.40
14604;DHT22;7388;51.078;13.740;2022-11-27T16:17:31;10.40;39.40
14604;DHT22;7388;51.078;13.740;2022-11-27T16:19:57;10.30;39.30
14604;DHT22;7388;51.078;13.740;2022-11-27T16:22:23;10.30;39.40
14604;DHT22;7388;51.078;13.740;2022-11-27T16:24:49;10.20;39.30
14604;DHT22;7388;51.078;13.740;2022-11-27T16:27:14;10.30;39.60
14604;DHT22;7388;51.078;13.740;2022-11-27T16:29:40;10.20;39.50
14604;DHT22;7388;51.078;13.740;2022-11-27T16:32:06;10.20;39.50
14604;DHT22;7388;51.078;13.740;2022-11-27T16:34:32;10.20;39.40
14604;DHT22;7388;51.078;13.740;2022-11-27T16:36:57;10.20;39.40
14604;DHT22;7388;51.078;13.740;2022-11-27T16:39:23;10.10;39.60
14604;DHT22;7388;51.078;13.740;2022-11-27T16:41:49;10.10;39.50
14604;DHT22;7388;51.078;13.740;2022-11-27T16:44:15;10.10;39.50
14604;DHT22;7388;51.078;13.740;2022-11-27T16:46:41;10.00;39.50
14604;DHT22;7388;51.078;13.740;2022-11-27T16:49:08;10.00;39.70
14604;DHT22;7388;51.078;13.740;2022-11-27T16:51:37;9.90;39.70
14604;DHT22;7388;51.078;13.740;2022-11-27T16:54:05;10.00;39.80
14604;DHT22;7388;51.078;13.740;2022-11-27T16:56:33;9.90;39.80
14604;DHT22;7388;51.078;13.740;2022-11-27T16:58:59;9.90;40.00
14604;DHT22;7388;51.078;13.740;2022-11-27T17:01:28;9.90;40.00
14604;DHT22;7388;51.078;13.740;2022-11-27T17:03:55;9.80;39.90
14604;DHT22;7388;51.078;13.740;2022-11-27T17:06:25;9.80;39.90
14604;DHT22;7388;51.078;13.740;2022-11-27T17:08:53;9.80;40.00
14604;DHT22;7388;51.078;13.740;2022-11-27T17:11:21;9.80;40.20
14604;DHT22;7388;51.078;13.740;2022-11-27T17:13:50;9.70;40.30
14604;DHT22;7388;51.078;13.740;2022-11-27T17:16:17;9.70;40.50
14604;DHT22;7388;51.078;13.740;2022-11-27T17:18:43;9.70;40.60
14604;DHT22;7388;51.078;13.740;2022-11-27T17:21:19;9.70;40.60
14604;DHT22;7388;51.078;13.740;2022-11-27T17:23:46;9.60;40.60
14604;DHT22;7388;51.078;13.740;2022-11-27T17:26:14;9.60;40.60
14604;DHT22;7388;51.078;13.740;2022-11-27T17:28:40;9.60;40.60
14604;DHT22;7388;51.078;13.740;2022-11-27T17:31:18;9.60;40.80
14604;DHT22;7388;51.078;13.740;2022-11-27T17:33:45;9.60;40.80
14604;DHT22;7388;51.078;13.740;2022-11-27T17:36:11;9.60;40.80
14604;DHT22;7388;51.078;13.740;2022-11-27T17:38:37;9.60;40.90
14604;DHT22;7388;51.078;13.740;2022-11-27T17:41:08;9.60;40.90
14604;DHT22;7388;51.078;13.740;2022-11-27T17:43:34;9.50;41.20
14604;DHT22;7388;51.078;13.740;2022-11-27T17:46:01;9.50;41.10
14604;DHT22;7388;51.078;13.740;2022-11-27T17:48:30;9.50;41.20
14604;DHT22;7388;51.078;13.740;2022-11-27T17:50:59;9.50;41.10
14604;DHT22;7388;51.078;13.740;2022-11-27T17:53:25;9.50;41.30
14604;DHT22;7388;51.078;13.740;2022-11-27T17:55:51;9.40;41.30
14604;DHT22;7388;51.078;13.740;2022-11-27T17:58:16;9.40;41.30
14604;DHT22;7388;51.078;13.740;2022-11-27T18:00:42;9.40;41.40
14604;DHT22;7388;51.078;13.740;2022-11-27T18:03:09;9.40;41.50
14604;DHT22;7388;51.078;13.740;2022-11-27T18:05:36;9.40;41.50
14604;DHT22;7388;51.078;13.740;2022-11-27T18:08:03;9.40;41.50
14604;DHT22;7388;51.078;13.740;2022-11-27T18:10:29;9.40;41.50
14604;DHT22;7388;51.078;13.740;2022-11-27T18:12:55;9.40;41.40
14604;DHT22;7388;51.078;13.740;2022-11-27T18:15:20;9.40;41.40
14604;DHT22;7388;51.078;13.740;2022-11-27T18:17:46;9.40;41.50
14604;DHT22;7388;51.078;13.740;2022-11-27T18:20:12;9.40;41.40
14604;DHT22;7388;51.078;13.740;2022-11-27T18:22:38;9.40;41.30
14604;DHT22;7388;51.078;13.740;2022-11-27T18:25:04;9.40;41.40